Flight Track Log - Related Links

Times and Time Zones

All times are in EDT time to prevent confusion due to time zone crossing. See the N373LD flight status page for this flight to view local times or setup timezone preferences in your user account.

Time Position Orientation Groundspeed Altitude Reporting Facility
EDT Latitude Longitude Course Direction KTS MPH feet Rate Location/Type
Mon 08:34:19 AM 44.6053 -108.8928 48° Northeast 155 178 9,400  Level Salt Lake Center
Mon 08:35:20 AM 44.6361 -108.8439 48° Northeast 159 183 10,800 1,388 Climbing Salt Lake Center
Mon 08:36:20 AM 44.6689 -108.7928 48° Northeast 168 193 12,200 1,339 Climbing Salt Lake Center
Mon 08:37:21 AM 44.7022 -108.7403 48° Northeast 174 200 13,500 1,438 Climbing Salt Lake Center
Mon 08:38:21 AM 44.7439 -108.6744 48° Northeast 181 208 15,100 1,488 Climbing Salt Lake Center
Mon 08:39:22 AM 44.7792 -108.6183 48° Northeast 189 217 16,500 1,289 Climbing Salt Lake Center
Mon 08:40:22 AM 44.8156 -108.5619 48° Northeast 193 222 17,700 1,041 Climbing Salt Lake Center
Mon 08:41:23 AM 44.8536 -108.5017 48° Northeast 201 231 18,600 645 Climbing Salt Lake Center
Mon 08:42:23 AM 44.8961 -108.4342 48° Northeast 220 253 19,000 198 Climbing Salt Lake Center
Mon 08:43:24 AM 44.9433 -108.3586 49° Northeast 246 283 19,000  Level Salt Lake Center
Mon 08:44:24 AM 44.9928 -108.2808 48° Northeast 261 300 19,000  Level Salt Lake Center
Mon 08:45:25 AM 45.0408 -108.2036 49° Northeast 261 300 19,000  Level Salt Lake Center
Mon 08:46:26 AM 45.0861 -108.1289 49° Northeast 256 295 19,000  Level Salt Lake Center
Mon 08:47:26 AM 45.1317 -108.0525 50° Northeast 257 296 19,000  Level Salt Lake Center
Mon 08:48:27 AM 45.1822 -107.9728 48° Northeast 255 293 19,000  Level Salt Lake Center
Mon 08:49:27 AM 45.2283 -107.8983 49° Northeast 254 292 19,000  Level Salt Lake Center
Mon 08:50:28 AM 45.2739 -107.8244 49° Northeast 252 290 19,000  Level Salt Lake Center
Mon 08:51:29 AM 45.3192 -107.7489 50° Northeast 254 292 19,000  Level Salt Lake Center
Mon 08:52:29 AM 45.3697 -107.6675 49° Northeast 256 295 19,000  Level Salt Lake Center
Mon 08:53:30 AM 45.4158 -107.5919 49° Northeast 256 295 19,000  Level Salt Lake Center
Mon 08:54:30 AM 45.4608 -107.5169 49° Northeast 260 299 19,000  Level Salt Lake Center
Mon 08:55:31 AM 45.5081 -107.4406 49° Northeast 259 298 19,000  Level Salt Lake Center
Mon 08:56:32 AM 45.5553 -107.3631 49° Northeast 259 298 19,000  Level Salt Lake Center
Mon 08:57:33 AM 45.6022 -107.2853 49° Northeast 260 299 19,000  Level Salt Lake Center
Mon 08:58:33 AM 45.6492 -107.2075 49° Northeast 259 298 19,000  Level Salt Lake Center
Mon 08:59:34 AM 45.6961 -107.1294 49° Northeast 258 297 19,000  Level Salt Lake Center
Mon 09:00:35 AM 45.7431 -107.0517 49° Northeast 258 297 19,000  Level Salt Lake Center
Mon 09:01:36 AM 45.7889 -106.9736 50° Northeast 258 297 19,000  Level Salt Lake Center
Mon 09:02:36 AM 45.8347 -106.8972 49° Northeast 255 293 19,000  Level Salt Lake Center
Mon 09:03:37 AM 45.8803 -106.8186 50° Northeast 256 295 19,000  Level Salt Lake Center
Mon 09:04:38 AM 45.9356 -106.7264 49° Northeast 255 293 19,000  Level Salt Lake Center
Mon 09:05:39 AM 45.9822 -106.6489 49° Northeast 256 295 19,000  Level Salt Lake Center
Mon 09:06:39 AM 46.0289 -106.5692 50° Northeast 259 298 19,000 -298 Level Salt Lake Center
Mon 09:07:40 AM 46.0753 -106.4911 49° Northeast 258 297 18,400 -590 Descending Salt Lake Center
Mon 09:09:00 AM 46.1331 -106.3837 49° Northeast  Level FlightAware Approximate
Mon 09:16:00 AM 46.4167 -105.8833 54° Northeast  Level FlightAware Approximate
Mon 09:17:00 AM 46.4280 -105.8863 54° Northeast  Level Estimated
Mon 09:18:00 AM 46.4280 -105.8863 54° Northeast  Level Estimated
Mon 09:19:00 AM 46.4280 -105.8863 54° Northeast  Level Estimated
Mon 09:20:00 AM 46.4280 -105.8863 54° Northeast  Level Estimated
Mon 09:21:00 AM 46.4280 -105.8863 54° Northeast  Level Estimated
Mon 09:22:00 AM 46.4280 -105.8863 54° Northeast  Level Estimated
Mon 09:23:00 AM 46.4280 -105.8863 54° Northeast  Level Estimated
Mon 09:24:00 AM 46.4280 -105.8863 54° Northeast  Level Estimated
Mon 09:25:00 AM 46.4280 -105.8863 54° Northeast  Level Estimated
Mon 09:26:00 AM 46.4280 -105.8863 54° Northeast  Level Estimated
Mon 09:27:00 AM 46.4280 -105.8863 54° Northeast  Level Estimated
Mon 09:28:00 AM 46.4280 -105.8863 54° Northeast  Level Estimated
Mon 09:29:00 AM 46.4280 -105.8863 54° Northeast  Level Estimated
Mon 09:30:00 AM 46.4280 -105.8863 54° Northeast  Level Estimated
Mon 09:31:00 AM 46.4280 -105.8863 54° Northeast  Level Estimated
Mon 09:32:00 AM 46.4280 -105.8863 54° Northeast  Level Estimated

Login

Don't have an account? Register now (free) for customized features, flight alerts, and more!